Terminal Aerodrome Forecast
Issued by NWS North Platte, NE

Home | Current Version | Previous Version | Text Only | Print | Product List | Glossary On
Versions: 1 2 3 4 5 6 7 8 9 10 11 12 13 14 15 16
355
FTUS43 KLBF 161120
TAFLBF
TAF
KLBF 161120Z 1612/1712 VRB04KT P6SM BKN250
     FM161600 02009KT P6SM BKN250
     FM161900 03012G18KT P6SM BKN250
     FM170200 03010KT P6SM BKN070
     FM170600 02010KT P6SM BKN025=

USA.gov is the U.S. government's official web portal to all federal, state and local government web resources and services.